Time;durP1;ratioP1;P1;durP2;ratioP2;P2;SDS_P1;SDS_P2;PMS_P1;PMS_P2;Temp;Humidity;BMP_temperature;BMP_pressure;BME280_temperature;BME280_humidity;BME280_pressure;Samples;Min_cycle;Max_cycle;Signal;HPM_P1;HPM_P2
2021/09/11 00:00:31;;;;;;;9.15;8.23;;;18.60;99.90;;;;;;5056007;28;20100;-79
2021/09/11 00:02:56;;;;;;;8.93;8.02;;;18.50;99.90;;;;;;5056340;28;20028;-79
2021/09/11 00:05:23;;;;;;;9.23;8.23;;;18.40;99.90;;;;;;5057545;28;20551;-79
2021/09/11 00:07:50;;;;;;;8.48;7.72;;;18.20;99.90;;;;;;5037169;28;20044;-80
2021/09/11 00:10:16;;;;;;;9.02;7.88;;;18.10;99.90;;;;;;5046355;28;20105;-79
2021/09/11 00:12:42;;;;;;;9.75;8.50;;;18.00;99.90;;;;;;5042118;28;20029;-80
2021/09/11 00:15:12;;;;;;;13.43;11.25;;;17.90;99.90;;;;;;5039649;28;20032;-80
2021/09/11 00:17:39;;;;;;;13.10;11.50;;;17.90;99.90;;;;;;5074408;28;20033;-79
2021/09/11 00:20:06;;;;;;;11.23;10.13;;;17.90;99.90;;;;;;5044163;28;20427;-78
2021/09/11 00:22:32;;;;;;;12.18;10.88;;;17.80;99.90;;;;;;5055367;28;20029;-78
2021/09/11 00:24:58;;;;;;;16.02;12.75;;;17.80;99.90;;;;;;5056441;28;20017;-80
2021/09/11 00:27:24;;;;;;;12.15;10.20;;;17.80;99.90;;;;;;5039712;28;20025;-80
2021/09/11 00:29:50;;;;;;;9.98;8.98;;;17.70;99.90;;;;;;5057056;28;20017;-80
2021/09/11 00:32:16;;;;;;;7.82;7.13;;;17.60;99.90;;;;;;5057283;28;20385;-77
2021/09/11 00:34:42;;;;;;;6.22;5.30;;;17.50;99.90;;;;;;5058676;28;20021;-79
2021/09/11 00:37:08;;;;;;;9.55;8.43;;;17.50;99.90;;;;;;5056333;28;20105;-78
2021/09/11 00:39:34;;;;;;;10.10;8.55;;;17.50;99.90;;;;;;5048193;28;20082;-79
2021/09/11 00:41:59;;;;;;;13.20;9.38;;;17.50;99.90;;;;;;5056532;28;20370;-78
2021/09/11 00:44:25;;;;;;;10.65;9.63;;;17.50;99.90;;;;;;5057028;28;20021;-78
2021/09/11 00:46:51;;;;;;;16.88;14.93;;;17.50;99.90;;;;;;5064880;28;20036;-78
2021/09/11 00:49:16;;;;;;;11.88;10.60;;;17.50;99.90;;;;;;5054403;28;20421;-76
2021/09/11 00:51:42;;;;;;;10.48;9.35;;;17.50;99.90;;;;;;5037704;28;20044;-77
2021/09/11 00:54:09;;;;;;;12.32;11.02;;;17.50;99.90;;;;;;5058475;28;20063;-77
2021/09/11 00:56:35;;;;;;;12.20;11.00;;;17.40;99.90;;;;;;5056105;28;20083;-78
2021/09/11 00:59:02;;;;;;;13.45;12.15;;;17.40;99.90;;;;;;5056955;28;20045;-78
2021/09/11 01:01:28;;;;;;;17.17;15.48;;;17.40;99.90;;;;;;5040385;28;20017;-77
2021/09/11 01:03:54;;;;;;;16.52;14.77;;;17.30;99.90;;;;;;5055516;28;20036;-77
2021/09/11 01:06:20;;;;;;;14.93;13.32;;;17.30;99.90;;;;;;5037413;28;20036;-78
2021/09/11 01:08:46;;;;;;;12.07;10.88;;;17.30;99.90;;;;;;5048825;28;20096;-78
2021/09/11 01:11:13;;;;;;;16.20;14.50;;;17.20;99.90;;;;;;5048260;28;20521;-79
2021/09/11 01:13:38;;;;;;;12.23;10.57;;;17.20;99.90;;;;;;5056316;28;20033;-79
2021/09/11 01:16:06;;;;;;;10.82;9.73;;;17.20;99.90;;;;;;5056145;28;20028;-80
2021/09/11 01:18:32;;;;;;;13.35;11.07;;;17.20;99.90;;;;;;5055414;28;20021;-80
2021/09/11 01:20:58;;;;;;;11.57;10.30;;;17.20;99.90;;;;;;5051879;28;20020;-80
2021/09/11 01:23:24;;;;;;;13.90;12.50;;;17.20;99.90;;;;;;5043714;28;20112;-79
2021/09/11 01:25:50;;;;;;;13.65;12.30;;;17.20;99.90;;;;;;5060119;28;20532;-78
2021/09/11 01:28:16;;;;;;;13.52;12.15;;;17.20;99.90;;;;;;5059387;28;20033;-80
2021/09/11 01:30:43;;;;;;;13.57;12.18;;;17.20;99.90;;;;;;5062532;28;20025;-80
2021/09/11 01:33:09;;;;;;;13.95;12.55;;;17.20;99.90;;;;;;5042072;28;20021;-80
2021/09/11 01:35:35;;;;;;;11.68;10.57;;;17.20;99.90;;;;;;5060619;28;20070;-79
2021/09/11 01:38:00;;;;;;;14.32;11.32;;;17.20;99.90;;;;;;5041207;28;20021;-79
2021/09/11 01:40:26;;;;;;;16.98;15.27;;;17.20;99.90;;;;;;5054630;28;20526;-79
2021/09/11 01:42:52;;;;;;;17.13;13.63;;;17.20;99.90;;;;;;5060018;28;20076;-79
2021/09/11 01:45:20;;;;;;;10.98;9.88;;;17.20;99.90;;;;;;5060426;28;20021;-79
2021/09/11 01:47:48;;;;;;;10.63;9.52;;;17.20;99.90;;;;;;5059971;28;20071;-79
2021/09/11 01:50:16;;;;;;;12.18;10.40;;;17.20;99.90;;;;;;5052320;28;20125;-79
2021/09/11 01:52:43;;;;;;;12.85;10.40;;;17.20;99.90;;;;;;5060579;28;20055;-79
2021/09/11 01:55:13;;;;;;;16.25;14.60;;;17.10;99.90;;;;;;5062538;28;20053;-79
2021/09/11 01:57:40;;;;;;;14.65;13.25;;;17.20;99.90;;;;;;5059734;28;20021;-79
2021/09/11 02:00:14;;;;;;;16.65;15.00;;;17.10;99.90;;;;;;5059466;28;20025;-79
2021/09/11 02:02:40;;;;;;;15.35;13.75;;;17.10;99.90;;;;;;5059147;28;20063;-79
2021/09/11 02:05:08;;;;;;;13.88;12.45;;;17.10;99.90;;;;;;5059979;28;20021;-79
2021/09/11 02:07:34;;;;;;;14.77;13.25;;;17.10;99.90;;;;;;5059457;28;20029;-79
2021/09/11 02:10:01;;;;;;;14.65;13.15;;;17.20;99.90;;;;;;5024045;28;20026;-78
2021/09/11 02:12:26;;;;;;;13.60;12.18;;;17.20;99.90;;;;;;5052819;28;20029;-79
2021/09/11 02:14:52;;;;;;;13.55;12.05;;;17.20;99.90;;;;;;5059487;28;20453;-79
2021/09/11 02:17:20;;;;;;;14.77;13.25;;;17.20;99.90;;;;;;5059395;28;20025;-78
2021/09/11 02:19:47;;;;;;;14.02;12.63;;;17.20;99.90;;;;;;5061457;28;20025;-79
2021/09/11 02:22:13;;;;;;;13.95;12.52;;;17.20;99.90;;;;;;5048276;28;20097;-79
2021/09/11 02:24:39;;;;;;;14.57;11.90;;;17.20;99.90;;;;;;5060879;28;20017;-78
2021/09/11 02:27:05;;;;;;;12.23;11.00;;;17.10;99.90;;;;;;5062402;28;20032;-79
2021/09/11 02:29:32;;;;;;;12.57;11.00;;;17.20;99.90;;;;;;5060891;28;20032;-78
2021/09/11 02:31:58;;;;;;;12.75;11.43;;;17.10;99.90;;;;;;5040546;28;20036;-79
2021/09/11 02:34:24;;;;;;;13.43;12.13;;;17.20;99.90;;;;;;5042559;28;20394;-79
2021/09/11 02:36:50;;;;;;;18.38;14.75;;;17.10;99.90;;;;;;5061350;28;20584;-78
2021/09/11 02:39:16;;;;;;;14.75;13.30;;;17.10;99.90;;;;;;5047955;28;20033;-79
2021/09/11 02:41:42;;;;;;;16.42;13.70;;;17.10;99.90;;;;;;5036450;28;20028;-79
2021/09/11 02:44:07;;;;;;;15.23;13.70;;;17.10;99.90;;;;;;5062161;28;20017;-78
2021/09/11 02:46:33;;;;;;;14.52;12.95;;;17.10;99.90;;;;;;5042116;28;20048;-79
2021/09/11 02:49:00;;;;;;;15.05;13.43;;;17.10;99.90;;;;;;5063736;28;20017;-78
2021/09/11 02:51:26;;;;;;;14.38;12.98;;;17.10;99.90;;;;;;5053560;28;20059;-80
2021/09/11 02:53:52;;;;;;;14.27;12.82;;;17.10;99.90;;;;;;5060133;28;20021;-80
2021/09/11 02:56:18;;;;;;;14.45;13.02;;;17.00;99.90;;;;;;5059211;28;20029;-80
2021/09/11 02:58:44;;;;;;;13.13;11.82;;;17.10;99.90;;;;;;5059603;28;20025;-80
2021/09/11 03:01:09;;;;;;;13.38;12.07;;;17.10;99.90;;;;;;5060374;28;20025;-79
2021/09/11 03:03:36;;;;;;;14.73;12.80;;;17.10;99.90;;;;;;5043528;28;20385;-78
2021/09/11 03:06:02;;;;;;;13.20;11.80;;;17.10;99.90;;;;;;5059576;28;20064;-79
2021/09/11 03:08:28;;;;;;;12.20;11.00;;;17.10;99.90;;;;;;5055361;28;20489;-79
2021/09/11 03:10:54;;;;;;;13.25;11.82;;;17.00;99.90;;;;;;5056710;28;20049;-79
2021/09/11 03:13:19;;;;;;;13.48;11.93;;;17.00;99.90;;;;;;5065956;28;20025;-77
2021/09/11 03:15:45;;;;;;;11.80;10.70;;;17.00;99.90;;;;;;5074334;28;20036;-77
2021/09/11 03:18:11;;;;;;;11.57;10.38;;;17.10;99.90;;;;;;5075352;28;20032;-77
2021/09/11 03:20:37;;;;;;;12.25;10.95;;;17.00;99.90;;;;;;5048899;28;20044;-77
2021/09/11 03:23:04;;;;;;;11.68;10.50;;;17.00;99.90;;;;;;5074422;28;20021;-78
2021/09/11 03:25:30;;;;;;;12.15;10.85;;;17.00;99.90;;;;;;5075550;28;20052;-77
2021/09/11 03:27:56;;;;;;;11.77;9.98;;;16.90;99.90;;;;;;5075497;28;20021;-78
2021/09/11 03:30:22;;;;;;;11.23;10.13;;;16.90;99.90;;;;;;5075649;28;20020;-77
2021/09/11 03:32:48;;;;;;;11.50;10.40;;;16.80;99.90;;;;;;5075388;28;20020;-77
2021/09/11 03:35:13;;;;;;;10.75;9.57;;;16.80;99.90;;;;;;5057865;28;20056;-78
2021/09/11 03:37:39;;;;;;;10.55;9.48;;;16.80;99.90;;;;;;5075293;28;20021;-78
2021/09/11 03:40:05;;;;;;;9.95;9.05;;;16.80;99.90;;;;;;5068671;28;20040;-78
2021/09/11 03:42:31;;;;;;;10.27;9.35;;;16.70;99.90;;;;;;5076680;28;20328;-79
2021/09/11 03:44:57;;;;;;;9.07;8.18;;;16.80;99.90;;;;;;5073742;28;20017;-79
2021/09/11 03:47:22;;;;;;;9.43;8.50;;;16.70;99.90;;;;;;5074392;28;20116;-79
2021/09/11 03:49:48;;;;;;;7.97;7.28;;;16.70;99.90;;;;;;5063973;28;20044;-79
2021/09/11 03:52:14;;;;;;;7.85;7.10;;;16.70;99.90;;;;;;5063480;28;20025;-79
2021/09/11 03:54:39;;;;;;;8.10;7.30;;;16.70;99.90;;;;;;5057853;28;20049;-79
2021/09/11 03:57:05;;;;;;;7.63;6.82;;;16.80;99.90;;;;;;5057466;28;20033;-78
2021/09/11 03:59:31;;;;;;;6.63;5.95;;;16.80;99.90;;;;;;5059758;28;20024;-79
2021/09/11 04:01:57;;;;;;;8.05;6.63;;;16.80;99.90;;;;;;5057828;28;20110;-79
2021/09/11 04:04:23;;;;;;;6.60;5.93;;;16.70;99.90;;;;;;5072991;28;20101;-79
2021/09/11 04:06:49;;;;;;;6.43;5.80;;;16.80;99.90;;;;;;5073945;28;20490;-79
2021/09/11 04:09:15;;;;;;;7.43;5.82;;;16.70;99.90;;;;;;5054881;28;20116;-78
2021/09/11 04:11:41;;;;;;;6.75;6.15;;;16.70;99.90;;;;;;5058886;28;20466;-78
2021/09/11 04:14:06;;;;;;;7.18;6.30;;;16.60;99.90;;;;;;5060728;28;20032;-79
2021/09/11 04:16:32;;;;;;;6.22;5.63;;;16.60;99.90;;;;;;5063578;28;20081;-77
2021/09/11 04:18:58;;;;;;;6.93;6.22;;;16.60;99.90;;;;;;5064753;28;20043;-78
2021/09/11 04:21:23;;;;;;;6.32;5.72;;;16.60;99.90;;;;;;5054259;28;20021;-79
2021/09/11 04:23:49;;;;;;;6.20;5.65;;;16.60;99.90;;;;;;5062781;28;20031;-78
2021/09/11 04:26:15;;;;;;;6.30;5.70;;;16.60;99.90;;;;;;5064896;28;20082;-78
2021/09/11 04:28:40;;;;;;;6.50;5.90;;;16.60;99.90;;;;;;5067926;28;20118;-78
2021/09/11 04:31:06;;;;;;;6.47;5.88;;;16.60;99.90;;;;;;5050248;28;20036;-78
2021/09/11 04:33:32;;;;;;;6.53;5.93;;;16.60;99.90;;;;;;5047497;28;20037;-78
2021/09/11 04:35:57;;;;;;;6.28;5.72;;;16.50;99.90;;;;;;5058831;28;20109;-79
2021/09/11 04:38:23;;;;;;;7.18;6.47;;;16.50;99.90;;;;;;5060371;28;20429;-78
2021/09/11 04:40:49;;;;;;;6.32;5.72;;;16.50;99.90;;;;;;5044272;28;20029;-81
2021/09/11 04:43:15;;;;;;;6.32;5.72;;;16.50;99.90;;;;;;5039752;28;20697;-80
2021/09/11 04:45:41;;;;;;;6.40;5.78;;;16.40;99.90;;;;;;5037562;28;20032;-80
2021/09/11 04:48:06;;;;;;;6.88;6.13;;;16.40;99.90;;;;;;5026912;28;20048;-79
2021/09/11 04:50:35;;;;;;;6.40;5.80;;;16.50;99.90;;;;;;5057403;28;20031;-78
2021/09/11 04:53:00;;;;;;;6.97;6.30;;;16.50;99.90;;;;;;5042990;28;20021;-78
2021/09/11 04:55:26;;;;;;;6.65;6.03;;;16.50;99.90;;;;;;5040125;28;20026;-78
2021/09/11 04:57:52;;;;;;;6.65;6.03;;;16.50;99.90;;;;;;5044227;28;20036;-81
2021/09/11 05:00:17;;;;;;;6.78;6.18;;;16.50;99.90;;;;;;5054467;28;20519;-81
2021/09/11 05:02:43;;;;;;;6.75;6.13;;;16.50;99.90;;;;;;5041540;28;20025;-80
2021/09/11 05:05:09;;;;;;;7.20;6.50;;;16.60;99.90;;;;;;5062892;28;20381;-79
2021/09/11 05:07:35;;;;;;;6.47;5.88;;;16.50;99.90;;;;;;5059408;28;20029;-80
2021/09/11 05:10:01;;;;;;;6.60;6.00;;;16.60;99.90;;;;;;5043307;28;20456;-79
2021/09/11 05:12:26;;;;;;;6.65;6.00;;;16.60;99.90;;;;;;5023214;28;20112;-80
2021/09/11 05:14:55;;;;;;;8.35;7.38;;;16.60;99.90;;;;;;5038897;28;20534;-78
2021/09/11 05:17:20;;;;;;;7.82;7.03;;;16.60;99.90;;;;;;5039089;28;20075;-79
2021/09/11 05:19:46;;;;;;;6.78;6.18;;;16.60;99.90;;;;;;5052799;28;20493;-80
2021/09/11 05:22:12;;;;;;;7.05;6.35;;;16.70;99.90;;;;;;5059111;28;20051;-80
2021/09/11 05:24:44;;;;;;;6.35;5.80;;;16.70;99.90;;;;;;5058361;28;20029;-81
2021/09/11 05:27:09;;;;;;;5.95;5.45;;;16.80;99.90;;;;;;5058220;28;20032;-80
2021/09/11 05:29:35;;;;;;;6.32;5.72;;;16.80;99.90;;;;;;5059789;28;20136;-79
2021/09/11 05:32:04;;;;;;;5.90;5.40;;;16.90;99.90;;;;;;5058326;28;20495;-79
2021/09/11 05:34:30;;;;;;;6.68;5.85;;;16.90;99.90;;;;;;5060055;28;20476;-78
2021/09/11 05:36:55;;;;;;;6.28;5.68;;;17.00;99.90;;;;;;5057193;28;20033;-80
2021/09/11 05:39:24;;;;;;;6.70;6.10;;;17.00;99.90;;;;;;5045869;28;20022;-80
2021/09/11 05:41:49;;;;;;;6.50;5.90;;;17.10;99.90;;;;;;5068746;28;20422;-78
2021/09/11 05:44:15;;;;;;;6.10;5.55;;;17.20;99.90;;;;;;5060847;28;20033;-79
2021/09/11 05:46:43;;;;;;;7.65;6.32;;;17.30;99.90;;;;;;5056296;28;20017;-80
2021/09/11 05:49:09;;;;;;;6.55;5.95;;;17.40;99.90;;;;;;5056233;28;20458;-79
2021/09/11 05:51:35;;;;;;;6.47;5.82;;;17.50;99.90;;;;;;5049480;28;20025;-78
2021/09/11 05:54:03;;;;;;;5.88;5.38;;;17.60;99.90;;;;;;5040861;28;20021;-79
2021/09/11 05:56:29;;;;;;;5.78;5.20;;;17.60;99.90;;;;;;5057209;28;20100;-79
2021/09/11 05:58:54;;;;;;;6.05;5.55;;;17.70;99.90;;;;;;5057631;28;20048;-79
2021/09/11 06:01:20;;;;;;;5.20;4.80;;;17.80;99.90;;;;;;5056557;28;20436;-79
2021/09/11 06:03:46;;;;;;;4.78;4.38;;;17.80;99.90;;;;;;5055829;28;20025;-79
2021/09/11 06:06:11;;;;;;;5.55;5.05;;;17.90;99.90;;;;;;5056765;28;20029;-79
2021/09/11 06:08:37;;;;;;;4.55;4.10;;;17.90;99.90;;;;;;5054127;28;20064;-79
2021/09/11 06:11:03;;;;;;;5.28;4.80;;;17.90;99.90;;;;;;5058383;28;20509;-79
2021/09/11 06:13:29;;;;;;;5.80;5.20;;;17.90;99.90;;;;;;5062167;28;20067;-79
2021/09/11 06:15:54;;;;;;;4.68;4.28;;;17.90;99.90;;;;;;5043319;28;20092;-80
2021/09/11 06:18:23;;;;;;;5.93;5.43;;;18.00;99.90;;;;;;5060307;28;20021;-81
2021/09/11 06:20:48;;;;;;;5.47;5.05;;;18.00;99.90;;;;;;5051962;28;20037;-80
2021/09/11 06:23:14;;;;;;;5.80;5.35;;;17.90;99.90;;;;;;5060449;28;20029;-80
2021/09/11 06:25:40;;;;;;;5.90;5.40;;;17.90;99.90;;;;;;5062621;28;20504;-78
2021/09/11 06:28:06;;;;;;;8.85;6.35;;;17.90;99.90;;;;;;5060999;28;20025;-79
2021/09/11 06:30:32;;;;;;;6.25;5.75;;;17.90;99.90;;;;;;5061585;28;20169;-78
2021/09/11 06:32:57;;;;;;;5.47;4.97;;;17.80;99.90;;;;;;5062439;28;20021;-79
2021/09/11 06:35:23;;;;;;;6.35;5.80;;;17.80;99.90;;;;;;5062674;28;20028;-80
2021/09/11 06:37:51;;;;;;;5.53;5.03;;;17.80;99.90;;;;;;5044255;28;20016;-80
2021/09/11 06:40:17;;;;;;;5.30;4.90;;;17.80;99.90;;;;;;5053539;28;20420;-80
2021/09/11 06:42:43;;;;;;;6.75;5.80;;;17.90;99.90;;;;;;5059986;28;20024;-81
2021/09/11 06:45:09;;;;;;;5.47;4.97;;;18.00;99.90;;;;;;5059859;28;20028;-80
2021/09/11 06:47:34;;;;;;;6.53;5.93;;;18.10;99.90;;;;;;5062416;28;20029;-79
2021/09/11 06:50:00;;;;;;;6.88;5.95;;;18.10;99.90;;;;;;5051093;28;20017;-80
2021/09/11 06:52:26;;;;;;;6.05;5.45;;;18.10;99.90;;;;;;5060159;28;20503;-80
2021/09/11 06:54:51;;;;;;;6.25;5.65;;;18.10;99.90;;;;;;5060175;28;20632;-81
2021/09/11 06:57:17;;;;;;;5.35;4.93;;;18.20;99.90;;;;;;5061665;28;20379;-81
2021/09/11 06:59:46;;;;;;;5.28;4.78;;;18.40;99.90;;;;;;5059446;28;20036;-80
2021/09/11 07:02:12;;;;;;;5.45;5.05;;;18.60;99.90;;;;;;5060189;28;20027;-79
2021/09/11 07:04:37;;;;;;;5.18;4.68;;;18.70;99.90;;;;;;5061110;28;20092;-80
2021/09/11 07:07:03;;;;;;;5.03;4.53;;;18.80;99.90;;;;;;5059349;28;20048;-81
2021/09/11 07:09:29;;;;;;;5.03;4.63;;;19.00;99.90;;;;;;5037602;28;20029;-80
2021/09/11 07:11:55;;;;;;;6.88;5.18;;;19.10;99.90;;;;;;5040586;28;20485;-80
2021/09/11 07:14:20;;;;;;;5.00;4.57;;;19.20;99.90;;;;;;5051533;28;20346;-80
2021/09/11 07:16:46;;;;;;;5.22;4.82;;;19.40;99.90;;;;;;5059489;28;20083;-81
2021/09/11 07:19:12;;;;;;;6.63;5.70;;;19.50;99.90;;;;;;5058199;28;20120;-79
2021/09/11 07:21:38;;;;;;;5.88;4.95;;;19.60;99.90;;;;;;5054705;28;20047;-81
2021/09/11 07:24:04;;;;;;;6.95;5.68;;;19.60;99.90;;;;;;5059865;28;20080;-81
2021/09/11 07:26:30;;;;;;;5.05;4.65;;;19.60;99.90;;;;;;5059710;28;20504;-81
2021/09/11 07:28:56;;;;;;;5.05;4.65;;;19.70;99.90;;;;;;5061414;28;20025;-80
2021/09/11 07:31:21;;;;;;;5.30;4.82;;;19.70;99.90;;;;;;5041157;28;20449;-80
2021/09/11 07:33:47;;;;;;;5.13;4.72;;;19.80;99.90;;;;;;5061197;28;20057;-81
2021/09/11 07:36:13;;;;;;;5.50;5.00;;;19.80;99.90;;;;;;5043260;28;20489;-82
2021/09/11 07:38:39;;;;;;;5.50;4.88;;;19.90;99.90;;;;;;5051771;28;20028;-81
2021/09/11 07:41:05;;;;;;;5.28;4.78;;;20.00;99.90;;;;;;5040836;28;20018;-82
2021/09/11 07:43:31;;;;;;;5.43;4.97;;;20.10;99.90;;;;;;5041353;28;20126;-81
2021/09/11 07:45:56;;;;;;;4.97;4.57;;;20.20;99.90;;;;;;5056154;28;20033;-81
2021/09/11 07:48:23;;;;;;;4.95;4.55;;;20.40;99.90;;;;;;5040844;28;20039;-83
2021/09/11 07:50:49;;;;;;;4.70;4.30;;;20.50;99.70;;;;;;5050654;28;20069;-80
2021/09/11 07:53:15;;;;;;;4.82;4.32;;;20.70;98.80;;;;;;5059593;28;20454;-81
2021/09/11 07:55:41;;;;;;;5.20;4.80;;;20.90;98.00;;;;;;5040967;28;20036;-81
2021/09/11 07:58:08;;;;;;;6.30;5.28;;;21.00;97.00;;;;;;5040924;28;20036;-81
2021/09/11 08:00:34;;;;;;;5.28;4.78;;;21.10;96.00;;;;;;5041345;28;20033;-81
2021/09/11 08:03:00;;;;;;;5.32;4.82;;;21.20;95.40;;;;;;5041576;28;20025;-81
2021/09/11 08:05:26;;;;;;;5.53;5.03;;;21.30;94.70;;;;;;5058894;28;20017;-82
2021/09/11 08:07:52;;;;;;;4.75;4.35;;;21.50;94.20;;;;;;5043837;28;20040;-80
2021/09/11 08:10:19;;;;;;;6.05;4.47;;;21.70;93.50;;;;;;5053678;28;20053;-81
2021/09/11 08:12:49;;;;;;;4.75;4.35;;;22.00;91.70;;;;;;5068856;28;20096;-80
2021/09/11 08:15:16;;;;;;;4.93;4.40;;;22.00;91.50;;;;;;5060097;28;20111;-81
2021/09/11 08:17:43;;;;;;;4.88;4.40;;;22.30;90.90;;;;;;5062248;28;20059;-81
2021/09/11 08:20:09;;;;;;;4.95;4.45;;;22.50;88.90;;;;;;5052499;28;20128;-80
2021/09/11 08:22:35;;;;;;;4.88;4.40;;;22.80;88.10;;;;;;5059314;28;20493;-80
2021/09/11 08:25:01;;;;;;;4.53;3.85;;;23.20;82.70;;;;;;5062670;28;20033;-79
2021/09/11 08:27:27;;;;;;;4.75;4.35;;;23.70;81.30;;;;;;5062614;28;20025;-79
2021/09/11 08:29:52;;;;;;;4.50;4.10;;;24.30;79.20;;;;;;5062038;28;20056;-80
2021/09/11 08:32:18;;;;;;;4.15;3.58;;;24.80;75.90;;;;;;5046120;28;20021;-80
2021/09/11 08:34:44;;;;;;;4.15;3.85;;;25.20;73.80;;;;;;5061571;28;20415;-80
2021/09/11 08:37:10;;;;;;;4.50;4.10;;;25.50;70.80;;;;;;5059366;28;20031;-79
2021/09/11 08:39:36;;;;;;;4.28;3.90;;;25.50;68.30;;;;;;5054234;28;20021;-80
2021/09/11 08:42:02;;;;;;;4.32;3.92;;;25.40;67.30;;;;;;5041638;28;20056;-80
2021/09/11 08:44:29;;;;;;;3.80;3.50;;;25.10;68.20;;;;;;5050063;28;20458;-79
2021/09/11 08:46:55;;;;;;;4.53;3.90;;;24.90;67.10;;;;;;5060010;28;20025;-81
2021/09/11 08:49:21;;;;;;;4.10;3.80;;;24.70;67.30;;;;;;5038648;28;20021;-80
2021/09/11 08:51:47;;;;;;;6.20;4.55;;;24.70;67.70;;;;;;5053973;28;20068;-79
2021/09/11 08:54:14;;;;;;;4.00;3.70;;;24.70;66.50;;;;;;5040884;28;20475;-80
2021/09/11 08:56:44;;;;;;;4.43;3.55;;;24.40;66.60;;;;;;5058871;28;20021;-80
2021/09/11 08:59:20;;;;;;;4.00;3.70;;;24.00;66.70;;;;;;5058517;28;20495;-79
2021/09/11 09:02:06;;;;;;;4.00;3.63;;;23.70;69.90;;;;;;5058696;28;20086;-78
2021/09/11 09:04:48;;;;;;;4.13;3.83;;;23.60;70.10;;;;;;5045560;28;20021;-80
2021/09/11 09:07:40;;;;;;;4.55;4.15;;;23.50;69.50;;;;;;5061318;28;20040;-80
2021/09/11 09:10:08;;;;;;;3.90;3.60;;;23.30;69.60;;;;;;5061069;28;20036;-79
2021/09/11 09:12:36;;;;;;;4.43;4.03;;;23.20;70.80;;;;;;5074646;28;20105;-79
2021/09/11 09:15:08;;;;;;;4.85;4.03;;;23.20;71.40;;;;;;5074911;28;20029;-78
2021/09/11 09:17:52;;;;;;;5.22;4.10;;;23.30;71.60;;;;;;5066597;28;20051;-80
2021/09/11 09:20:21;;;;;;;3.95;3.63;;;23.40;70.90;;;;;;5053531;28;20017;-80
2021/09/11 09:22:58;;;;;;;4.97;4.47;;;23.20;71.00;;;;;;5058989;28;20492;-79
2021/09/11 09:25:32;;;;;;;5.28;4.60;;;23.20;71.20;;;;;;5041094;28;20029;-79
2021/09/11 09:28:11;;;;;;;6.40;4.47;;;23.10;72.60;;;;;;5059083;28;20097;-79
2021/09/11 09:30:45;;;;;;;5.80;5.30;;;23.20;72.90;;;;;;5058499;28;20025;-81
2021/09/11 09:33:30;;;;;;;4.38;4.07;;;23.40;72.10;;;;;;5057087;28;20017;-81
2021/09/11 09:36:00;;;;;;;4.80;4.40;;;23.60;71.30;;;;;;5038346;28;20032;-81
2021/09/11 09:38:26;;;;;;;4.88;4.47;;;23.80;71.10;;;;;;5049969;28;20021;-81
2021/09/11 09:40:53;;;;;;;5.43;4.60;;;24.10;70.60;;;;;;5058467;28;20092;-80
2021/09/11 09:43:29;;;;;;;5.03;4.20;;;24.40;69.80;;;;;;5044123;28;20033;-80
2021/09/11 09:46:06;;;;;;;6.07;5.00;;;24.50;68.90;;;;;;5045035;28;20059;-80
2021/09/11 09:48:33;;;;;;;4.63;4.22;;;24.40;68.00;;;;;;5060446;28;20024;-79
2021/09/11 09:51:07;;;;;;;4.70;4.30;;;24.30;68.90;;;;;;5052659;28;20428;-80
2021/09/11 09:53:35;;;;;;;5.18;4.03;;;24.50;68.80;;;;;;5045237;28;20028;-80
2021/09/11 09:56:01;;;;;;;4.63;4.25;;;24.40;69.70;;;;;;5061812;28;20053;-79
2021/09/11 09:58:27;;;;;;;4.57;4.18;;;24.50;69.80;;;;;;5060921;28;20029;-80
2021/09/11 10:00:53;;;;;;;4.35;4.05;;;24.50;70.10;;;;;;5061369;28;20025;-80
2021/09/11 10:03:18;;;;;;;6.47;4.30;;;24.50;70.00;;;;;;5063530;28;20310;-79
2021/09/11 10:05:50;;;;;;;5.25;4.50;;;24.40;68.90;;;;;;5062840;28;20021;-80
2021/09/11 10:08:17;;;;;;;4.65;4.10;;;24.20;70.20;;;;;;5039606;28;20096;-80
2021/09/11 10:10:48;;;;;;;4.65;4.25;;;24.10;71.00;;;;;;5038337;28;20040;-80
2021/09/11 10:13:19;;;;;;;5.35;4.88;;;24.10;71.70;;;;;;5060995;28;20115;-80
2021/09/11 10:16:02;;;;;;;6.75;3.97;;;24.10;70.50;;;;;;5062753;28;20029;-78
2021/09/11 10:18:32;;;;;;;4.28;3.90;;;24.00;71.20;;;;;;5060179;28;20094;-80
2021/09/11 10:21:27;;;;;;;4.88;4.35;;;24.00;69.00;;;;;;5033983;28;20021;-79
2021/09/11 10:23:55;;;;;;;5.00;4.13;;;23.80;67.60;;;;;;5040536;28;20022;-79
2021/09/11 10:26:45;;;;;;;5.32;4.65;;;23.70;68.90;;;;;;5040599;28;20033;-79
2021/09/11 10:29:35;;;;;;;5.05;4.50;;;23.80;68.20;;;;;;5042755;28;20324;-78
2021/09/11 10:32:10;;;;;;;6.75;4.80;;;24.00;67.80;;;;;;5040344;28;20026;-80
2021/09/11 10:34:53;;;;;;;5.18;4.70;;;24.20;66.60;;;;;;5040412;28;20036;-80
2021/09/11 10:37:28;;;;;;;4.78;4.38;;;24.20;66.60;;;;;;5047663;28;20072;-80
2021/09/11 10:40:21;;;;;;;5.00;4.60;;;24.20;66.70;;;;;;5051043;28;20074;-79
2021/09/11 10:43:17;;;;;;;5.50;4.55;;;24.30;66.20;;;;;;5022934;28;20061;-80
2021/09/11 10:46:02;;;;;;;4.45;4.05;;;24.50;66.30;;;;;;5040553;28;20060;-81
2021/09/11 10:48:39;;;;;;;4.07;3.75;;;24.50;64.90;;;;;;5051850;28;20060;-80
2021/09/11 10:51:28;;;;;;;4.63;4.13;;;24.40;65.10;;;;;;5052485;28;20017;-79
2021/09/11 10:54:22;;;;;;;4.95;4.55;;;24.50;65.40;;;;;;5062345;28;20021;-79
2021/09/11 10:56:47;;;;;;;4.75;4.35;;;24.60;64.40;;;;;;5059837;28;20093;-80
2021/09/11 10:59:16;;;;;;;5.10;4.60;;;24.60;65.70;;;;;;5060118;28;20021;-80
2021/09/11 11:02:21;;;;;;;4.07;3.78;;;24.60;65.20;;;;;;5061336;28;20037;-80
2021/09/11 11:04:47;;;;;;;4.10;3.70;;;24.60;65.50;;;;;;5060994;28;20025;-81
2021/09/11 11:07:15;;;;;;;4.47;4.18;;;24.80;65.60;;;;;;5063909;28;20040;-79
2021/09/11 11:09:42;;;;;;;4.78;4.22;;;24.90;65.20;;;;;;5065207;22;20013;-81
2021/09/11 11:12:09;;;;;;;4.40;4.00;;;25.20;65.30;;;;;;5011407;28;20026;-79
2021/09/11 11:14:38;;;;;;;4.35;3.95;;;25.40;63.60;;;;;;5019449;28;20038;-78
2021/09/11 11:17:04;;;;;;;4.07;3.65;;;25.40;63.00;;;;;;5020336;28;20038;-77
2021/09/11 11:19:32;;;;;;;4.03;3.70;;;25.70;63.20;;;;;;5018701;28;20037;-78
2021/09/11 11:22:03;;;;;;;4.45;4.05;;;26.00;62.80;;;;;;5015209;28;20021;-79
2021/09/11 11:24:37;;;;;;;3.97;3.67;;;26.20;61.90;;;;;;5020145;28;20042;-80
2021/09/11 11:27:05;;;;;;;4.18;3.88;;;26.60;61.30;;;;;;5019945;28;20180;-78
2021/09/11 11:29:31;;;;;;;4.30;3.90;;;27.20;60.80;;;;;;5019952;28;20363;-79
2021/09/11 11:31:57;;;;;;;4.07;3.78;;;27.80;58.00;;;;;;5019560;28;20038;-79
2021/09/11 11:34:23;;;;;;;3.45;3.25;;;27.80;57.50;;;;;;5019974;28;20026;-79
2021/09/11 11:37:10;;;;;;;4.32;3.92;;;27.70;58.20;;;;;;5020291;28;20026;-79
2021/09/11 11:39:41;;;;;;;3.97;3.63;;;27.70;56.70;;;;;;5012516;28;20014;-79
2021/09/11 11:42:19;;;;;;;4.32;3.85;;;27.60;56.90;;;;;;5018763;28;20026;-79
2021/09/11 11:44:51;;;;;;;3.17;2.97;;;27.50;57.20;;;;;;4999597;28;20041;-79
2021/09/11 11:47:48;;;;;;;5.00;3.50;;;27.20;57.50;;;;;;5000790;28;20040;-79
2021/09/11 11:50:30;;;;;;;3.53;3.30;;;26.80;58.00;;;;;;5029685;28;20068;-79
2021/09/11 11:53:07;;;;;;;3.33;3.05;;;26.60;58.80;;;;;;5015876;28;20021;-80
2021/09/11 11:55:37;;;;;;;3.85;3.55;;;26.40;59.60;;;;;;5015465;28;20031;-80
2021/09/11 11:58:20;;;;;;;3.30;3.10;;;26.40;59.80;;;;;;5006033;28;20034;-79
2021/09/11 12:00:50;;;;;;;3.55;3.33;;;26.40;59.90;;;;;;4997536;28;20041;-80
2021/09/11 12:03:42;;;;;;;3.90;3.60;;;26.20;60.50;;;;;;5026758;28;20014;-80
2021/09/11 12:06:23;;;;;;;;;;;25.80;61.00;;;;;;5030026;28;20025;-80
2021/09/11 12:08:49;;;;;;;3.60;3.30;;;25.10;62.70;;;;;;5014890;28;19968;-79
2021/09/11 12:11:23;;;;;;;4.65;4.28;;;24.40;65.10;;;;;;4999115;28;20485;-77
2021/09/11 12:13:52;;;;;;;4.80;4.40;;;23.90;66.70;;;;;;5002146;28;20487;-78
2021/09/11 12:16:19;;;;;;;4.30;4.00;;;23.50;68.20;;;;;;4981029;28;20034;-78
2021/09/11 12:18:45;;;;;;;4.70;4.30;;;23.30;69.70;;;;;;4998004;28;20038;-78
2021/09/11 12:21:14;;;;;;;4.25;3.85;;;23.20;70.80;;;;;;4995585;28;20030;-78
2021/09/11 12:23:44;;;;;;;4.07;3.67;;;23.40;70.50;;;;;;5017663;28;20022;-79
2021/09/11 12:26:12;;;;;;;3.60;3.30;;;23.70;69.50;;;;;;5018137;28;20026;-78
2021/09/11 12:28:43;;;;;;;3.80;3.50;;;23.80;68.90;;;;;;5018319;28;20057;-79
2021/09/11 12:31:25;;;;;;;3.65;3.35;;;24.00;68.60;;;;;;5017493;28;20409;-78
2021/09/11 12:34:18;;;;;;;3.88;3.45;;;24.00;67.80;;;;;;5018623;28;20112;-79
2021/09/11 12:37:00;;;;;;;3.28;2.97;;;23.70;68.50;;;;;;5018372;28;20473;-79
2021/09/11 12:39:30;;;;;;;3.53;3.22;;;23.50;69.50;;;;;;5009892;28;20025;-79
2021/09/11 12:41:58;;;;;;;4.07;3.70;;;23.10;71.50;;;;;;5004217;28;20022;-80
2021/09/11 12:44:25;;;;;;;4.53;4.13;;;22.80;75.20;;;;;;5022876;28;20137;-80
2021/09/11 12:46:56;;;;;;;4.35;3.95;;;22.40;78.80;;;;;;5022703;28;20041;-80
2021/09/11 12:49:24;;;;;;;4.88;4.47;;;21.90;81.90;;;;;;5021971;28;20018;-80